Time;durP1;ratioP1;P1;durP2;ratioP2;P2;SDS_P1;SDS_P2;PMS_P1;PMS_P2;Temp;Humidity;BMP_temperature;BMP_pressure;BME280_temperature;BME280_humidity;BME280_pressure;Samples;Min_cycle;Max_cycle;Signal;HPM_P1;HPM_P2
2023/08/25 00:04:16;;;;;;;6.43;4.23;;;;;;;;;;2614852;54;20355;-72
2023/08/25 00:09:46;;;;;;;5.83;4.20;;;;;;;;;;2614956;39;20782;-72
2023/08/25 00:15:15;;;;;;;8.97;5.13;;;;;;;;;;2614925;54;20375;-73
2023/08/25 00:20:45;;;;;;;7.67;4.77;;;;;;;;;;2614909;54;20423;-74
2023/08/25 00:26:15;;;;;;;7.53;4.77;;;;;;;;;;2614641;54;20387;-73
2023/08/25 00:31:44;;;;;;;6.03;4.83;;;;;;;;;;2615350;39;20776;-74
2023/08/25 00:37:14;;;;;;;5.00;4.50;;;;;;;;;;2614806;54;20383;-74
2023/08/25 00:42:44;;;;;;;4.90;4.30;;;;;;;;;;2614736;54;21117;-74
2023/08/25 00:48:14;;;;;;;4.30;3.90;;;;;;;;;;2614685;54;20362;-74
2023/08/25 00:53:44;;;;;;;6.80;4.30;;;;;;;;;;2614656;54;21009;-74
2023/08/25 00:59:14;;;;;;;6.07;4.50;;;;;;;;;;2614484;39;20838;-74
2023/08/25 01:04:43;;;;;;;5.50;4.23;;;;;;;;;;2615088;54;20442;-74
2023/08/25 01:10:13;;;;;;;8.47;5.20;;;;;;;;;;2615446;54;20387;-74
2023/08/25 01:15:45;;;;;;;6.70;5.00;;;;;;;;;;2615434;54;20523;-74
2023/08/25 01:21:15;;;;;;;5.30;4.80;;;;;;;;;;2615230;54;21215;-73
2023/08/25 01:26:44;;;;;;;5.90;5.40;;;;;;;;;;2614844;54;20387;-72
2023/08/25 01:32:14;;;;;;;6.63;5.00;;;;;;;;;;2614738;54;20801;-73
2023/08/25 01:44:00;;;;;;;6.87;5.17;;;;;;;;;;2614197;39;20959;-73
2023/08/25 01:49:30;;;;;;;7.30;5.70;;;;;;;;;;2613491;54;20918;-72
2023/08/25 02:01:06;;;;;;;9.57;5.13;;;;;;;;;;2613470;54;21314;-73
2023/08/25 02:06:35;;;;;;;5.87;5.27;;;;;;;;;;2613340;54;20374;-73
2023/08/25 02:12:05;;;;;;;7.47;5.50;;;;;;;;;;2612929;54;20402;-73
2023/08/25 02:17:34;;;;;;;8.30;6.17;;;;;;;;;;2613591;54;22550;-74
2023/08/25 02:23:04;;;;;;;7.07;5.47;;;;;;;;;;2614431;54;20390;-73
2023/08/25 02:28:33;;;;;;;6.50;5.50;;;;;;;;;;2614644;54;20363;-72
2023/08/25 02:34:03;;;;;;;9.77;6.90;;;;;;;;;;2615078;54;21021;-72
2023/08/25 02:39:32;;;;;;;7.10;5.10;;;;;;;;;;2614652;54;20414;-71
2023/08/25 02:45:02;;;;;;;7.10;5.77;;;;;;;;;;2614710;54;20969;-72
2023/08/25 02:50:32;;;;;;;8.63;5.50;;;;;;;;;;2614624;54;20982;-71
2023/08/25 02:59:37;;;;;;;6.80;6.10;;;;;;;;;;2614934;54;20928;-71
2023/08/25 03:05:07;;;;;;;10.20;5.93;;;;;;;;;;2615219;54;20359;-70
2023/08/25 03:10:36;;;;;;;9.87;6.03;;;;;;;;;;2615004;54;20362;-71
2023/08/25 03:13:21;;;;;;;8.47;7.20;;;;;;;;;;2613874;54;20415;-72
2023/08/25 03:15:52;;;;;;;7.50;6.80;;;;;;;;;;2614934;54;20398;-71
2023/08/25 03:21:21;;;;;;;15.90;7.00;;;;;;;;;;2615053;47;20796;-72
2023/08/25 03:26:51;;;;;;;7.97;6.20;;;;;;;;;;2613967;54;20374;-70
2023/08/25 03:32:21;;;;;;;6.97;6.17;;;;;;;;;;2615345;54;20374;-70
2023/08/25 03:37:50;;;;;;;8.80;6.90;;;;;;;;;;2615241;54;20383;-71
2023/08/25 03:43:20;;;;;;;10.27;7.40;;;;;;;;;;2614743;54;20443;-71
2023/08/25 03:48:49;;;;;;;12.80;7.07;;;;;;;;;;2614568;54;20390;-72
2023/08/25 03:54:19;;;;;;;8.60;6.87;;;;;;;;;;2614442;54;20466;-71
2023/08/25 03:59:48;;;;;;;8.13;6.90;;;;;;;;;;2613667;54;20470;-70
2023/08/25 04:05:18;;;;;;;9.43;7.80;;;;;;;;;;2613370;54;20494;-72
2023/08/25 04:10:47;;;;;;;9.20;7.80;;;;;;;;;;2614673;54;20387;-71
2023/08/25 04:16:17;;;;;;;8.80;7.77;;;;;;;;;;2614590;54;21000;-70
2023/08/25 04:21:48;;;;;;;11.10;8.20;;;;;;;;;;2614347;54;20409;-71
2023/08/25 04:27:17;;;;;;;23.10;9.10;;;;;;;;;;2614037;54;20434;-70
2023/08/25 04:32:47;;;;;;;9.50;8.40;;;;;;;;;;2613812;54;20555;-71
2023/08/25 04:38:16;;;;;;;9.60;8.60;;;;;;;;;;2615661;54;20423;-70
2023/08/25 04:43:47;;;;;;;10.60;8.17;;;;;;;;;;2615361;54;20378;-72
2023/08/25 04:49:17;;;;;;;11.37;8.90;;;;;;;;;;2615656;46;20422;-71
2023/08/25 04:54:47;;;;;;;9.23;8.33;;;;;;;;;;2615609;54;20411;-73
2023/08/25 05:03:55;;;;;;;12.47;9.07;;;;;;;;;;2615797;39;20757;-73
2023/08/25 05:09:24;;;;;;;11.30;9.90;;;;;;;;;;2614747;54;20414;-73
2023/08/25 05:14:54;;;;;;;13.43;8.83;;;;;;;;;;2614925;46;20402;-73
2023/08/25 05:20:23;;;;;;;17.90;13.40;;;;;;;;;;2615780;54;20386;-73
2023/08/25 05:25:53;;;;;;;11.10;10.10;;;;;;;;;;2615078;54;20427;-74
2023/08/25 05:31:22;;;;;;;14.80;10.70;;;;;;;;;;2614881;54;20402;-73
2023/08/25 05:36:52;;;;;;;14.70;11.43;;;;;;;;;;2615160;54;20351;-73
2023/08/25 05:42:21;;;;;;;19.43;13.23;;;;;;;;;;2615349;39;20762;-74
2023/08/25 05:47:51;;;;;;;15.33;13.73;;;;;;;;;;2615011;54;20395;-73
2023/08/25 05:53:21;;;;;;;13.83;12.53;;;;;;;;;;2616003;31;20860;-73
2023/08/25 05:58:50;;;;;;;19.00;13.10;;;;;;;;;;2615085;54;20421;-73
2023/08/25 06:04:20;;;;;;;14.20;12.97;;;;;;;;;;2614839;54;20458;-74
2023/08/25 06:09:49;;;;;;;14.67;12.03;;;;;;;;;;2614728;54;20455;-73
2023/08/25 06:15:19;;;;;;;14.23;12.83;;;;;;;;;;2614942;54;20986;-73
2023/08/25 06:20:52;;;;;;;14.50;12.10;;;;;;;;;;2614499;54;20411;-73
2023/08/25 06:26:22;;;;;;;11.90;10.70;;;;;;;;;;2614864;54;20921;-73
2023/08/25 06:31:51;;;;;;;10.13;9.23;;;;;;;;;;2615146;39;20737;-73
2023/08/25 06:37:21;;;;;;;10.33;9.43;;;;;;;;;;2614620;54;20359;-73
2023/08/25 06:42:50;;;;;;;11.03;10.13;;;;;;;;;;2614609;46;20415;-73
2023/08/25 06:48:20;;;;;;;10.67;9.57;;;;;;;;;;2615112;39;21496;-73
2023/08/25 06:53:49;;;;;;;11.10;10.00;;;;;;;;;;2615191;39;20750;-73
2023/08/25 06:59:19;;;;;;;10.63;9.83;;;;;;;;;;2614374;54;20471;-72
2023/08/25 07:08:21;;;;;;;11.70;10.80;;;;;;;;;;2613491;39;21272;-73
2023/08/25 07:13:50;;;;;;;11.80;10.70;;;;;;;;;;2615295;39;20783;-73
2023/08/25 07:19:20;;;;;;;10.50;9.60;;;;;;;;;;2615094;54;20367;-74
2023/08/25 07:24:53;;;;;;;10.47;9.40;;;;;;;;;;2614367;39;20775;-74
2023/08/25 07:30:22;;;;;;;9.97;9.23;;;;;;;;;;2615171;54;20406;-73
2023/08/25 07:35:52;;;;;;;9.90;8.97;;;;;;;;;;2614714;54;20495;-74
2023/08/25 07:41:22;;;;;;;7.67;7.00;;;;;;;;;;2614966;54;20387;-74
2023/08/25 07:46:51;;;;;;;6.27;5.53;;;;;;;;;;2614928;54;20917;-74
2023/08/25 07:52:21;;;;;;;8.10;5.30;;;;;;;;;;2614619;54;20484;-73
2023/08/25 07:57:52;;;;;;;7.60;5.57;;;;;;;;;;2614869;54;20418;-73
2023/08/25 08:03:22;;;;;;;11.47;7.07;;;;;;;;;;2615765;39;20849;-73
2023/08/25 08:08:52;;;;;;;10.80;7.50;;;;;;;;;;2613569;54;20431;-73
2023/08/25 08:14:21;;;;;;;9.20;6.83;;;;;;;;;;2615528;54;20407;-73
2023/08/25 08:19:50;;;;;;;11.03;8.03;;;;;;;;;;2615484;46;20475;-73
2023/08/25 08:25:20;;;;;;;8.80;7.97;;;;;;;;;;2615662;54;20909;-73
2023/08/25 08:30:50;;;;;;;10.40;8.50;;;;;;;;;;2614835;54;20347;-74
2023/08/25 08:36:19;;;;;;;11.00;9.80;;;;;;;;;;2615222;54;20359;-74
2023/08/25 08:41:49;;;;;;;12.13;9.10;;;;;;;;;;2615122;54;20936;-75
2023/08/25 08:47:20;;;;;;;10.63;8.77;;;;;;;;;;2615162;54;20449;-74
2023/08/25 08:52:50;;;;;;;13.20;8.40;;;;;;;;;;2615519;54;20381;-74
2023/08/25 08:58:20;;;;;;;11.53;7.13;;;;;;;;;;2615642;46;20414;-75
2023/08/25 09:03:50;;;;;;;8.83;7.80;;;;;;;;;;2615331;54;20463;-74
2023/08/25 09:12:42;;;;;;;8.37;6.73;;;;;;;;;;2615111;54;20430;-74
2023/08/25 09:15:08;;;;;;;7.00;6.30;;;;;;;;;;2614928;54;20414;-74
2023/08/25 09:20:38;;;;;;;6.60;5.83;;;;;;;;;;2615131;54;20358;-75
2023/08/25 09:26:08;;;;;;;7.50;6.80;;;;;;;;;;2614835;54;20410;-74
2023/08/25 09:31:37;;;;;;;7.37;6.67;;;;;;;;;;2615389;54;20379;-75
2023/08/25 09:37:07;;;;;;;13.30;8.40;;;;;;;;;;2614756;54;20446;-73
2023/08/25 09:42:37;;;;;;;15.03;8.33;;;;;;;;;;2614652;54;20414;-72
2023/08/25 09:48:07;;;;;;;10.80;8.10;;;;;;;;;;2615120;54;20354;-72
2023/08/25 09:53:38;;;;;;;12.13;8.33;;;;;;;;;;2614646;54;20411;-72
2023/08/25 09:59:07;;;;;;;20.07;8.90;;;;;;;;;;2614940;54;20363;-72
2023/08/25 10:04:39;;;;;;;9.50;7.90;;;;;;;;;;2615207;54;20944;-72
2023/08/25 10:13:38;;;;;;;14.80;8.20;;;;;;;;;;2614722;54;20382;-72
2023/08/25 10:19:13;;;;;;;10.40;9.00;;;;;;;;;;2614697;54;20487;-73
2023/08/25 10:24:43;;;;;;;11.63;9.67;;;;;;;;;;2614561;54;20374;-73
2023/08/25 10:30:14;;;;;;;16.70;9.10;;;;;;;;;;2614693;54;20680;-72
2023/08/25 10:35:47;;;;;;;8.77;7.90;;;;;;;;;;2614096;54;20386;-73
2023/08/25 10:41:20;;;;;;;5.70;5.10;;;;;;;;;;2614300;54;20407;-73
2023/08/25 10:46:50;;;;;;;7.83;5.63;;;;;;;;;;2614280;54;20902;-73
2023/08/25 10:52:20;;;;;;;5.63;5.00;;;;;;;;;;2614409;54;20387;-73
2023/08/25 10:57:53;;;;;;;7.57;5.03;;;;;;;;;;2614697;54;20419;-72
2023/08/25 11:15:39;;;;;;;9.30;5.40;;;;;;;;;;2614805;54;20379;-72
2023/08/25 11:21:08;;;;;;;8.30;3.80;;;;;;;;;;2614834;39;20866;-73
2023/08/25 11:26:37;;;;;;;7.60;4.30;;;;;;;;;;2614027;54;20519;-73
2023/08/25 11:32:10;;;;;;;4.53;3.43;;;;;;;;;;2615154;39;20777;-72
2023/08/25 11:37:40;;;;;;;6.43;3.57;;;;;;;;;;2614373;54;20362;-72
2023/08/25 11:43:09;;;;;;;5.70;3.37;;;;;;;;;;2614466;54;20539;-72
2023/08/25 11:48:39;;;;;;;7.30;4.60;;;;;;;;;;2614760;54;20432;-72
2023/08/25 11:54:10;;;;;;;5.13;3.73;;;;;;;;;;2614574;54;20909;-70
2023/08/25 11:59:43;;;;;;;4.53;3.30;;;;;;;;;;2614585;54;20379;-71
2023/08/25 12:05:13;;;;;;;7.80;3.03;;;;;;;;;;2615074;39;20903;-71
2023/08/25 12:14:26;;;;;;;5.03;2.87;;;;;;;;;;2614209;54;20378;-72
2023/08/25 12:19:57;;;;;;;3.77;2.53;;;;;;;;;;2614672;54;20391;-70
2023/08/25 12:25:26;;;;;;;3.77;2.97;;;;;;;;;;2614475;54;20472;-72
2023/08/25 12:30:55;;;;;;;5.30;2.30;;;;;;;;;;2614910;39;20724;-71
2023/08/25 12:36:25;;;;;;;3.10;2.33;;;;;;;;;;2614020;54;20351;-70
2023/08/25 12:41:55;;;;;;;5.23;2.97;;;;;;;;;;2614150;54;20468;-72
2023/08/25 12:47:25;;;;;;;5.13;2.60;;;;;;;;;;2614036;54;20394;-69
2023/08/25 12:52:55;;;;;;;4.60;2.20;;;;;;;;;;2614169;54;20459;-68
2023/08/25 12:58:25;;;;;;;4.30;3.30;;;;;;;;;;2614017;54;20351;-71
2023/08/25 13:03:55;;;;;;;5.23;3.17;;;;;;;;;;2614831;54;20414;-72
2023/08/25 13:09:24;;;;;;;3.77;2.77;;;;;;;;;;2614879;54;20387;-72
2023/08/25 13:14:53;;;;;;;3.70;3.03;;;;;;;;;;2614791;54;20453;-70
2023/08/25 13:20:23;;;;;;;5.10;3.33;;;;;;;;;;2615292;54;20984;-71
2023/08/25 13:25:53;;;;;;;4.33;3.33;;;;;;;;;;2614816;54;20475;-71
2023/08/25 13:31:22;;;;;;;4.50;4.10;;;;;;;;;;2614988;54;20925;-70
2023/08/25 13:36:52;;;;;;;6.03;4.90;;;;;;;;;;2614747;54;20406;-70
2023/08/25 13:42:22;;;;;;;6.50;4.93;;;;;;;;;;2614870;54;20367;-71
2023/08/25 13:47:51;;;;;;;4.77;4.33;;;;;;;;;;2615193;54;20366;-73
2023/08/25 13:53:21;;;;;;;5.10;4.30;;;;;;;;;;2615105;54;20379;-71
2023/08/25 13:58:51;;;;;;;4.83;4.07;;;;;;;;;;2614860;54;20379;-71
2023/08/25 14:04:20;;;;;;;4.40;3.97;;;;;;;;;;2614360;54;20885;-69
2023/08/25 14:09:50;;;;;;;4.67;4.27;;;;;;;;;;2614040;54;20350;-71
2023/08/25 14:18:57;;;;;;;6.90;6.13;;;;;;;;;;2614664;54;20402;-75
2023/08/25 14:24:27;;;;;;;4.23;3.93;;;;;;;;;;2614991;54;20900;-74
2023/08/25 14:29:56;;;;;;;5.20;4.80;;;;;;;;;;2614498;54;20434;-76
2023/08/25 14:35:26;;;;;;;4.53;4.20;;;;;;;;;;2614699;54;20379;-74
2023/08/25 14:40:56;;;;;;;7.37;5.47;;;;;;;;;;2614704;54;20351;-75
2023/08/25 14:46:26;;;;;;;5.37;4.90;;;;;;;;;;2614571;54;20381;-74
2023/08/25 14:51:56;;;;;;;5.10;4.60;;;;;;;;;;2614763;54;20346;-75
2023/08/25 14:57:25;;;;;;;5.10;4.60;;;;;;;;;;2614817;54;20400;-74
2023/08/25 15:02:56;;;;;;;5.23;4.83;;;;;;;;;;2615576;31;20830;-73
2023/08/25 15:08:26;;;;;;;5.97;5.47;;;;;;;;;;2614979;54;20471;-74
2023/08/25 15:13:55;;;;;;;5.87;5.30;;;;;;;;;;2614582;39;20748;-74
2023/08/25 15:19:25;;;;;;;5.63;5.20;;;;;;;;;;2613963;54;20458;-73
2023/08/25 15:24:54;;;;;;;6.17;5.67;;;;;;;;;;2613933;54;20386;-73
2023/08/25 15:30:24;;;;;;;6.50;5.90;;;;;;;;;;2614768;39;20749;-74
2023/08/25 15:35:54;;;;;;;5.90;5.40;;;;;;;;;;2614868;39;20772;-75
2023/08/25 15:41:24;;;;;;;5.90;5.40;;;;;;;;;;2614379;54;20479;-75
2023/08/25 15:46:53;;;;;;;8.90;6.13;;;;;;;;;;2614725;39;20766;-74
2023/08/25 15:52:24;;;;;;;7.90;6.30;;;;;;;;;;2614592;54;20387;-74
2023/08/25 15:57:54;;;;;;;5.63;5.00;;;;;;;;;;2614881;39;20762;-75
2023/08/25 16:03:23;;;;;;;6.23;5.70;;;;;;;;;;2614443;54;20355;-75
2023/08/25 16:08:53;;;;;;;6.13;5.60;;;;;;;;;;2614831;54;20477;-75
2023/08/25 16:14:22;;;;;;;6.53;5.13;;;;;;;;;;2614564;54;20418;-75
2023/08/25 16:23:30;;;;;;;6.97;6.27;;;;;;;;;;2614283;54;20426;-74
2023/08/25 16:29:01;;;;;;;8.10;7.37;;;;;;;;;;2614256;39;20791;-75
2023/08/25 16:34:31;;;;;;;9.73;6.87;;;;;;;;;;2615765;39;20784;-71
2023/08/25 16:40:01;;;;;;;7.70;7.17;;;;;;;;;;2616011;54;20410;-70
2023/08/25 16:45:30;;;;;;;7.70;7.20;;;;;;;;;;2615966;54;20522;-71
2023/08/25 16:51:00;;;;;;;9.43;8.37;;;;;;;;;;2615985;54;20391;-71
2023/08/25 16:56:30;;;;;;;9.60;8.80;;;;;;;;;;2615821;54;20387;-71
2023/08/25 17:01:59;;;;;;;9.77;8.97;;;;;;;;;;2616262;54;20398;-71
2023/08/25 17:07:32;;;;;;;9.10;8.40;;;;;;;;;;2614978;54;20409;-73
2023/08/25 17:13:02;;;;;;;9.80;8.80;;;;;;;;;;2614813;54;20488;-72
2023/08/25 17:18:32;;;;;;;9.30;8.50;;;;;;;;;;2615558;39;20854;-73
2023/08/25 17:24:01;;;;;;;9.17;8.27;;;;;;;;;;2615672;39;20833;-73
2023/08/25 17:29:31;;;;;;;11.23;9.10;;;;;;;;;;2615820;39;20706;-72
2023/08/25 17:35:02;;;;;;;10.07;9.27;;;;;;;;;;2614838;54;20398;-72
2023/08/25 17:40:31;;;;;;;9.57;8.77;;;;;;;;;;2614772;54;21005;-73
2023/08/25 17:46:01;;;;;;;10.90;9.77;;;;;;;;;;2615011;54;20402;-74
2023/08/25 17:51:31;;;;;;;14.40;10.97;;;;;;;;;;2614949;54;20968;-76
2023/08/25 17:57:01;;;;;;;11.00;9.90;;;;;;;;;;2615018;54;20391;-74
2023/08/25 18:02:31;;;;;;;11.30;10.30;;;;;;;;;;2615569;54;20390;-75
2023/08/25 18:08:00;;;;;;;11.70;10.70;;;;;;;;;;2615020;54;20370;-74
2023/08/25 18:13:30;;;;;;;10.67;9.67;;;;;;;;;;2614590;54;20925;-74
2023/08/25 18:19:00;;;;;;;8.70;8.00;;;;;;;;;;2615155;46;20398;-74
2023/08/25 18:24:29;;;;;;;9.50;7.80;;;;;;;;;;2615162;54;20551;-74
2023/08/25 18:29:59;;;;;;;8.53;7.70;;;;;;;;;;2615133;54;20414;-74
2023/08/25 18:35:29;;;;;;;6.43;5.93;;;;;;;;;;2614180;54;22057;-74
2023/08/25 18:40:58;;;;;;;7.30;6.60;;;;;;;;;;2614879;54;20410;-74
2023/08/25 18:46:28;;;;;;;7.60;6.90;;;;;;;;;;2615090;54;20957;-75
2023/08/25 18:51:58;;;;;;;6.70;6.10;;;;;;;;;;2615523;46;20378;-74
2023/08/25 18:57:28;;;;;;;8.77;6.20;;;;;;;;;;2616058;54;20387;-70
2023/08/25 19:02:57;;;;;;;10.10;5.97;;;;;;;;;;2616348;39;20906;-70
2023/08/25 19:08:27;;;;;;;7.83;7.13;;;;;;;;;;2615906;54;20390;-70
2023/08/25 19:13:56;;;;;;;8.17;7.37;;;;;;;;;;2615435;54;20995;-70
2023/08/25 19:19:26;;;;;;;8.20;7.40;;;;;;;;;;2615264;54;20394;-69
2023/08/25 19:34:16;;;;;;;8.80;7.90;;;;;;;;;;2614603;39;20777;-71
2023/08/25 19:39:45;;;;;;;10.50;8.30;;;;;;;;;;2613841;54;21020;-70
2023/08/25 19:45:14;;;;;;;10.07;9.07;;;;;;;;;;2614071;54;20907;-71
2023/08/25 19:50:43;;;;;;;15.03;9.30;;;;;;;;;;2614333;54;20383;-72
2023/08/25 19:56:14;;;;;;;13.03;10.27;;;;;;;;;;2614857;39;20734;-71
2023/08/25 20:01:43;;;;;;;12.43;10.17;;;;;;;;;;2614093;54;20390;-70
2023/08/25 20:07:13;;;;;;;15.10;12.07;;;;;;;;;;2614340;54;20375;-71
2023/08/25 20:12:43;;;;;;;13.60;11.50;;;;;;;;;;2615883;46;21040;-70
2023/08/25 20:18:18;;;;;;;18.30;13.93;;;;;;;;;;2615792;39;20789;-70
2023/08/25 20:23:47;;;;;;;16.00;12.80;;;;;;;;;;2615373;54;20398;-70
2023/08/25 20:29:17;;;;;;;18.93;13.00;;;;;;;;;;2615417;54;20395;-70
2023/08/25 20:34:47;;;;;;;19.30;14.20;;;;;;;;;;2614767;54;20375;-70
2023/08/25 20:40:18;;;;;;;16.20;13.97;;;;;;;;;;2615298;54;20945;-69
2023/08/25 20:45:47;;;;;;;16.13;13.27;;;;;;;;;;2615767;54;20378;-71
2023/08/25 20:51:21;;;;;;;18.37;11.63;;;;;;;;;;2615684;54;20394;-70
2023/08/25 20:56:51;;;;;;;17.97;13.13;;;;;;;;;;2615570;54;20415;-70
2023/08/25 21:02:20;;;;;;;14.73;13.03;;;;;;;;;;2615879;54;20391;-70
2023/08/25 21:05:05;;;;;;;18.90;12.80;;;;;;;;;;2615557;54;20420;-71
2023/08/25 21:07:31;;;;;;;16.70;12.30;;;;;;;;;;2615820;54;20435;-69
2023/08/25 21:13:00;;;;;;;17.77;14.03;;;;;;;;;;2615810;54;20402;-71
2023/08/25 21:18:30;;;;;;;14.10;12.70;;;;;;;;;;2614629;46;20391;-74
2023/08/25 21:24:00;;;;;;;19.93;14.30;;;;;;;;;;2615790;39;20750;-74
2023/08/25 21:29:30;;;;;;;19.33;12.90;;;;;;;;;;2614925;54;20387;-74
2023/08/25 21:35:00;;;;;;;15.03;13.40;;;;;;;;;;2614971;54;20423;-75
2023/08/25 21:40:30;;;;;;;20.93;13.80;;;;;;;;;;2615003;54;20378;-74
2023/08/25 21:46:00;;;;;;;17.50;12.10;;;;;;;;;;2615212;39;20831;-74
2023/08/25 21:51:30;;;;;;;21.63;13.90;;;;;;;;;;2615343;46;20414;-74
2023/08/25 21:56:59;;;;;;;20.40;13.80;;;;;;;;;;2616216;54;20390;-70
2023/08/25 22:02:29;;;;;;;20.70;16.10;;;;;;;;;;2616403;54;20407;-70
2023/08/25 22:07:59;;;;;;;22.20;14.40;;;;;;;;;;2616363;54;20507;-70
2023/08/25 22:13:28;;;;;;;22.20;14.63;;;;;;;;;;2616590;54;20431;-70
2023/08/25 22:18:58;;;;;;;18.70;13.40;;;;;;;;;;2616379;54;20407;-70
2023/08/25 22:30:35;;;;;;;16.90;13.33;;;;;;;;;;2615233;39;21006;-73
2023/08/25 22:36:05;;;;;;;17.50;11.83;;;;;;;;;;2613945;46;20374;-73
2023/08/25 22:41:34;;;;;;;19.03;13.63;;;;;;;;;;2614902;54;20430;-73
2023/08/25 22:47:04;;;;;;;16.50;13.87;;;;;;;;;;2614884;54;20402;-72
2023/08/25 22:52:33;;;;;;;23.03;17.40;;;;;;;;;;2613845;54;20712;-73
2023/08/25 22:58:03;;;;;;;23.67;17.00;;;;;;;;;;2614249;54;20446;-72
2023/08/25 23:03:33;;;;;;;25.50;19.07;;;;;;;;;;2614391;54;20418;-72
2023/08/25 23:09:02;;;;;;;37.43;24.23;;;;;;;;;;2614699;39;20791;-72
2023/08/25 23:14:32;;;;;;;43.13;31.27;;;;;;;;;;2614196;54;20394;-72
2023/08/25 23:20:02;;;;;;;52.33;33.97;;;;;;;;;;2614441;54;20379;-72
2023/08/25 23:29:12;;;;;;;39.83;29.47;;;;;;;;;;2614494;54;20379;-73
2023/08/25 23:34:42;;;;;;;35.83;28.67;;;;;;;;;;2614242;54;20371;-70
2023/08/25 23:40:12;;;;;;;38.03;28.63;;;;;;;;;;2614996;54;20355;-69
2023/08/25 23:45:42;;;;;;;43.30;29.30;;;;;;;;;;2614544;54;20522;-69
2023/08/25 23:51:11;;;;;;;46.53;33.67;;;;;;;;;;2614522;54;20367;-71
2023/08/25 23:56:41;;;;;;;45.80;31.03;;;;;;;;;;2614592;54;20351;-69
